sensor_id;sensor_type;location;lat;lon;timestamp;P1;durP1;ratioP1;P2;durP2;ratioP2
71108;SDS011;59614;51.012;-1.648;2023-06-19T00:00:43;24.55;;;15.52;;
71108;SDS011;59614;51.012;-1.648;2023-06-19T00:03:08;23.00;;;13.88;;
71108;SDS011;59614;51.012;-1.648;2023-06-19T00:05:34;25.77;;;15.70;;
71108;SDS011;59614;51.012;-1.648;2023-06-19T00:07:59;31.70;;;16.70;;
71108;SDS011;59614;51.012;-1.648;2023-06-19T00:10:25;29.48;;;17.55;;
71108;SDS011;59614;51.012;-1.648;2023-06-19T00:12:51;27.65;;;17.33;;
71108;SDS011;59614;51.012;-1.648;2023-06-19T00:15:16;27.50;;;16.65;;
71108;SDS011;59614;51.012;-1.648;2023-06-19T00:17:42;24.65;;;16.58;;
71108;SDS011;59614;51.012;-1.648;2023-06-19T00:20:07;33.50;;;18.58;;
71108;SDS011;59614;51.012;-1.648;2023-06-19T00:22:34;28.00;;;18.17;;
71108;SDS011;59614;51.012;-1.648;2023-06-19T00:24:59;35.35;;;20.17;;
71108;SDS011;59614;51.012;-1.648;2023-06-19T00:27:25;31.02;;;18.10;;
71108;SDS011;59614;51.012;-1.648;2023-06-19T00:29:51;30.60;;;18.55;;
71108;SDS011;59614;51.012;-1.648;2023-06-19T00:32:17;33.10;;;19.02;;
71108;SDS011;59614;51.012;-1.648;2023-06-19T00:34:42;33.45;;;19.85;;
71108;SDS011;59614;51.012;-1.648;2023-06-19T00:37:08;27.85;;;18.90;;
71108;SDS011;59614;51.012;-1.648;2023-06-19T00:39:34;23.40;;;16.83;;
71108;SDS011;59614;51.012;-1.648;2023-06-19T00:42:00;34.85;;;19.02;;
71108;SDS011;59614;51.012;-1.648;2023-06-19T00:44:26;27.90;;;16.20;;
71108;SDS011;59614;51.012;-1.648;2023-06-19T00:46:55;29.08;;;18.15;;
71108;SDS011;59614;51.012;-1.648;2023-06-19T00:49:22;29.95;;;18.65;;
71108;SDS011;59614;51.012;-1.648;2023-06-19T00:51:50;33.45;;;19.23;;
71108;SDS011;59614;51.012;-1.648;2023-06-19T00:54:17;28.50;;;17.55;;
71108;SDS011;59614;51.012;-1.648;2023-06-19T00:56:43;26.98;;;17.35;;
71108;SDS011;59614;51.012;-1.648;2023-06-19T00:59:16;29.02;;;19.05;;
71108;SDS011;59614;51.012;-1.648;2023-06-19T01:01:43;30.88;;;18.67;;
71108;SDS011;59614;51.012;-1.648;2023-06-19T01:04:08;31.15;;;19.17;;
71108;SDS011;59614;51.012;-1.648;2023-06-19T01:06:56;27.05;;;18.20;;
71108;SDS011;59614;51.012;-1.648;2023-06-19T01:09:23;28.08;;;18.02;;
71108;SDS011;59614;51.012;-1.648;2023-06-19T01:12:01;30.33;;;16.60;;
71108;SDS011;59614;51.012;-1.648;2023-06-19T01:14:51;34.42;;;18.52;;
71108;SDS011;59614;51.012;-1.648;2023-06-19T01:17:21;26.98;;;16.75;;
71108;SDS011;59614;51.012;-1.648;2023-06-19T01:19:47;26.48;;;16.80;;
71108;SDS011;59614;51.012;-1.648;2023-06-19T01:22:21;34.35;;;18.77;;
71108;SDS011;59614;51.012;-1.648;2023-06-19T01:24:49;40.40;;;18.58;;
71108;SDS011;59614;51.012;-1.648;2023-06-19T01:27:15;30.67;;;18.55;;
71108;SDS011;59614;51.012;-1.648;2023-06-19T01:29:40;28.83;;;17.63;;
71108;SDS011;59614;51.012;-1.648;2023-06-19T01:32:13;39.35;;;18.35;;
71108;SDS011;59614;51.012;-1.648;2023-06-19T01:34:43;34.05;;;16.80;;
71108;SDS011;59614;51.012;-1.648;2023-06-19T01:37:11;23.05;;;14.93;;
71108;SDS011;59614;51.012;-1.648;2023-06-19T01:39:37;30.95;;;17.45;;
71108;SDS011;59614;51.012;-1.648;2023-06-19T01:42:04;31.25;;;17.55;;
71108;SDS011;59614;51.012;-1.648;2023-06-19T01:44:30;32.53;;;17.17;;
71108;SDS011;59614;51.012;-1.648;2023-06-19T01:46:56;25.83;;;17.40;;
71108;SDS011;59614;51.012;-1.648;2023-06-19T01:49:21;21.33;;;15.98;;
71108;SDS011;59614;51.012;-1.648;2023-06-19T01:51:47;102.47;;;17.73;;
71108;SDS011;59614;51.012;-1.648;2023-06-19T01:54:12;25.42;;;16.00;;
71108;SDS011;59614;51.012;-1.648;2023-06-19T01:56:37;49.78;;;16.73;;
71108;SDS011;59614;51.012;-1.648;2023-06-19T01:59:03;38.88;;;17.40;;
71108;SDS011;59614;51.012;-1.648;2023-06-19T02:01:29;30.38;;;17.20;;
71108;SDS011;59614;51.012;-1.648;2023-06-19T02:03:54;32.63;;;16.65;;
71108;SDS011;59614;51.012;-1.648;2023-06-19T02:06:20;20.50;;;14.32;;
71108;SDS011;59614;51.012;-1.648;2023-06-19T02:08:46;33.35;;;15.75;;
71108;SDS011;59614;51.012;-1.648;2023-06-19T02:11:13;24.33;;;15.93;;
71108;SDS011;59614;51.012;-1.648;2023-06-19T02:13:38;20.13;;;14.45;;
71108;SDS011;59614;51.012;-1.648;2023-06-19T02:16:04;17.75;;;12.93;;
71108;SDS011;59614;51.012;-1.648;2023-06-19T02:18:29;23.02;;;13.68;;
71108;SDS011;59614;51.012;-1.648;2023-06-19T02:20:55;27.45;;;13.98;;
71108;SDS011;59614;51.012;-1.648;2023-06-19T02:23:20;21.25;;;14.07;;
71108;SDS011;59614;51.012;-1.648;2023-06-19T02:25:45;22.83;;;15.25;;
71108;SDS011;59614;51.012;-1.648;2023-06-19T02:28:11;20.23;;;14.55;;
71108;SDS011;59614;51.012;-1.648;2023-06-19T02:30:36;42.10;;;15.05;;
71108;SDS011;59614;51.012;-1.648;2023-06-19T02:33:01;18.77;;;12.98;;
71108;SDS011;59614;51.012;-1.648;2023-06-19T02:35:27;24.67;;;13.13;;
71108;SDS011;59614;51.012;-1.648;2023-06-19T02:37:52;19.20;;;12.23;;
71108;SDS011;59614;51.012;-1.648;2023-06-19T02:40:17;45.55;;;12.32;;
71108;SDS011;59614;51.012;-1.648;2023-06-19T02:42:43;18.02;;;11.75;;
71108;SDS011;59614;51.012;-1.648;2023-06-19T02:45:09;36.85;;;12.63;;
71108;SDS011;59614;51.012;-1.648;2023-06-19T02:47:34;15.48;;;11.43;;
71108;SDS011;59614;51.012;-1.648;2023-06-19T02:50:00;18.63;;;12.32;;
71108;SDS011;59614;51.012;-1.648;2023-06-19T02:52:27;27.20;;;13.13;;
71108;SDS011;59614;51.012;-1.648;2023-06-19T02:54:53;21.50;;;12.88;;
71108;SDS011;59614;51.012;-1.648;2023-06-19T02:57:19;20.05;;;12.68;;
71108;SDS011;59614;51.012;-1.648;2023-06-19T02:59:45;21.00;;;12.13;;
71108;SDS011;59614;51.012;-1.648;2023-06-19T03:02:13;22.27;;;13.02;;
71108;SDS011;59614;51.012;-1.648;2023-06-19T03:04:39;23.63;;;14.32;;
71108;SDS011;59614;51.012;-1.648;2023-06-19T03:07:06;20.95;;;12.02;;
71108;SDS011;59614;51.012;-1.648;2023-06-19T03:09:31;24.27;;;13.85;;
71108;SDS011;59614;51.012;-1.648;2023-06-19T03:11:57;22.40;;;12.98;;
71108;SDS011;59614;51.012;-1.648;2023-06-19T03:14:22;22.77;;;13.80;;
71108;SDS011;59614;51.012;-1.648;2023-06-19T03:16:47;28.98;;;15.35;;
71108;SDS011;59614;51.012;-1.648;2023-06-19T03:19:13;25.80;;;15.25;;
71108;SDS011;59614;51.012;-1.648;2023-06-19T03:21:38;26.20;;;14.77;;
71108;SDS011;59614;51.012;-1.648;2023-06-19T03:24:04;22.33;;;13.60;;
71108;SDS011;59614;51.012;-1.648;2023-06-19T03:26:30;32.63;;;15.93;;
71108;SDS011;59614;51.012;-1.648;2023-06-19T03:28:55;30.40;;;16.70;;
71108;SDS011;59614;51.012;-1.648;2023-06-19T03:31:21;35.95;;;17.85;;
71108;SDS011;59614;51.012;-1.648;2023-06-19T03:33:46;28.45;;;16.25;;
71108;SDS011;59614;51.012;-1.648;2023-06-19T03:36:11;26.73;;;15.30;;
71108;SDS011;59614;51.012;-1.648;2023-06-19T03:38:37;28.27;;;15.73;;
71108;SDS011;59614;51.012;-1.648;2023-06-19T03:41:02;26.23;;;15.63;;
71108;SDS011;59614;51.012;-1.648;2023-06-19T03:43:28;25.80;;;14.52;;
71108;SDS011;59614;51.012;-1.648;2023-06-19T03:45:53;30.55;;;16.27;;
71108;SDS011;59614;51.012;-1.648;2023-06-19T03:48:18;25.70;;;15.93;;
71108;SDS011;59614;51.012;-1.648;2023-06-19T03:50:44;29.75;;;16.15;;
71108;SDS011;59614;51.012;-1.648;2023-06-19T03:53:09;28.92;;;16.33;;
71108;SDS011;59614;51.012;-1.648;2023-06-19T03:55:35;28.45;;;15.88;;
71108;SDS011;59614;51.012;-1.648;2023-06-19T03:58:00;28.45;;;15.70;;
71108;SDS011;59614;51.012;-1.648;2023-06-19T04:00:25;30.83;;;17.55;;
71108;SDS011;59614;51.012;-1.648;2023-06-19T04:02:51;30.48;;;17.27;;
71108;SDS011;59614;51.012;-1.648;2023-06-19T04:05:16;33.47;;;17.25;;
71108;SDS011;59614;51.012;-1.648;2023-06-19T04:07:42;32.53;;;18.40;;
71108;SDS011;59614;51.012;-1.648;2023-06-19T04:10:07;30.50;;;16.60;;
71108;SDS011;59614;51.012;-1.648;2023-06-19T04:12:33;29.27;;;17.20;;
71108;SDS011;59614;51.012;-1.648;2023-06-19T04:14:59;24.65;;;14.85;;
71108;SDS011;59614;51.012;-1.648;2023-06-19T04:17:24;31.40;;;17.08;;
71108;SDS011;59614;51.012;-1.648;2023-06-19T04:19:50;24.55;;;16.08;;
71108;SDS011;59614;51.012;-1.648;2023-06-19T04:22:15;32.65;;;17.63;;
71108;SDS011;59614;51.012;-1.648;2023-06-19T04:24:40;28.52;;;16.38;;
71108;SDS011;59614;51.012;-1.648;2023-06-19T04:27:06;31.10;;;17.63;;
71108;SDS011;59614;51.012;-1.648;2023-06-19T04:29:33;27.77;;;16.08;;
71108;SDS011;59614;51.012;-1.648;2023-06-19T04:31:59;26.40;;;16.45;;
71108;SDS011;59614;51.012;-1.648;2023-06-19T04:34:25;25.40;;;16.25;;
71108;SDS011;59614;51.012;-1.648;2023-06-19T04:36:50;25.80;;;15.90;;
71108;SDS011;59614;51.012;-1.648;2023-06-19T04:39:16;37.35;;;17.15;;
71108;SDS011;59614;51.012;-1.648;2023-06-19T04:41:44;26.67;;;15.90;;
71108;SDS011;59614;51.012;-1.648;2023-06-19T04:44:10;28.35;;;16.58;;
71108;SDS011;59614;51.012;-1.648;2023-06-19T04:46:38;34.00;;;17.75;;
71108;SDS011;59614;51.012;-1.648;2023-06-19T04:49:04;36.90;;;19.10;;
71108;SDS011;59614;51.012;-1.648;2023-06-19T04:51:30;35.58;;;17.65;;
71108;SDS011;59614;51.012;-1.648;2023-06-19T04:53:57;28.93;;;17.50;;
71108;SDS011;59614;51.012;-1.648;2023-06-19T04:56:26;25.40;;;15.02;;
71108;SDS011;59614;51.012;-1.648;2023-06-19T04:58:51;29.48;;;17.42;;
71108;SDS011;59614;51.012;-1.648;2023-06-19T05:01:19;24.77;;;16.85;;
71108;SDS011;59614;51.012;-1.648;2023-06-19T05:03:50;33.22;;;17.55;;
71108;SDS011;59614;51.012;-1.648;2023-06-19T05:06:16;22.15;;;15.18;;
71108;SDS011;59614;51.012;-1.648;2023-06-19T05:08:42;24.58;;;15.88;;
71108;SDS011;59614;51.012;-1.648;2023-06-19T05:11:07;23.88;;;15.00;;
71108;SDS011;59614;51.012;-1.648;2023-06-19T05:13:32;30.15;;;17.60;;
71108;SDS011;59614;51.012;-1.648;2023-06-19T05:15:58;23.77;;;15.02;;
71108;SDS011;59614;51.012;-1.648;2023-06-19T05:18:23;25.88;;;16.80;;
71108;SDS011;59614;51.012;-1.648;2023-06-19T05:20:49;22.55;;;14.27;;
71108;SDS011;59614;51.012;-1.648;2023-06-19T05:23:14;28.50;;;16.70;;
71108;SDS011;59614;51.012;-1.648;2023-06-19T05:25:39;28.38;;;16.05;;
71108;SDS011;59614;51.012;-1.648;2023-06-19T05:28:05;23.40;;;14.00;;
71108;SDS011;59614;51.012;-1.648;2023-06-19T05:30:30;31.23;;;15.10;;
71108;SDS011;59614;51.012;-1.648;2023-06-19T05:32:56;30.08;;;16.23;;
71108;SDS011;59614;51.012;-1.648;2023-06-19T05:35:21;24.45;;;14.48;;
71108;SDS011;59614;51.012;-1.648;2023-06-19T05:37:47;21.88;;;15.63;;
71108;SDS011;59614;51.012;-1.648;2023-06-19T05:40:12;23.70;;;13.43;;
71108;SDS011;59614;51.012;-1.648;2023-06-19T05:42:38;19.65;;;12.98;;
71108;SDS011;59614;51.012;-1.648;2023-06-19T05:45:05;25.30;;;14.48;;
71108;SDS011;59614;51.012;-1.648;2023-06-19T05:47:30;19.70;;;13.48;;
71108;SDS011;59614;51.012;-1.648;2023-06-19T05:49:56;21.90;;;12.95;;
71108;SDS011;59614;51.012;-1.648;2023-06-19T05:52:22;22.90;;;13.27;;
71108;SDS011;59614;51.012;-1.648;2023-06-19T05:54:47;14.05;;;10.60;;
71108;SDS011;59614;51.012;-1.648;2023-06-19T05:57:13;22.55;;;12.73;;
71108;SDS011;59614;51.012;-1.648;2023-06-19T06:02:06;18.02;;;10.88;;
71108;SDS011;59614;51.012;-1.648;2023-06-19T06:04:33;25.50;;;12.50;;
71108;SDS011;59614;51.012;-1.648;2023-06-19T06:06:59;20.23;;;11.85;;
71108;SDS011;59614;51.012;-1.648;2023-06-19T06:09:25;15.32;;;10.02;;
71108;SDS011;59614;51.012;-1.648;2023-06-19T06:11:50;16.38;;;10.80;;
71108;SDS011;59614;51.012;-1.648;2023-06-19T06:14:15;17.70;;;9.45;;
71108;SDS011;59614;51.012;-1.648;2023-06-19T06:16:41;15.27;;;10.13;;
71108;SDS011;59614;51.012;-1.648;2023-06-19T06:19:06;17.10;;;9.75;;
71108;SDS011;59614;51.012;-1.648;2023-06-19T06:21:32;12.13;;;8.20;;
71108;SDS011;59614;51.012;-1.648;2023-06-19T06:23:57;16.38;;;8.88;;
71108;SDS011;59614;51.012;-1.648;2023-06-19T06:26:22;17.25;;;7.97;;
71108;SDS011;59614;51.012;-1.648;2023-06-19T06:28:48;14.32;;;8.55;;
71108;SDS011;59614;51.012;-1.648;2023-06-19T06:31:13;13.57;;;8.20;;
71108;SDS011;59614;51.012;-1.648;2023-06-19T06:33:39;12.88;;;8.00;;
71108;SDS011;59614;51.012;-1.648;2023-06-19T06:36:04;14.88;;;8.75;;
71108;SDS011;59614;51.012;-1.648;2023-06-19T06:38:29;16.10;;;8.90;;
71108;SDS011;59614;51.012;-1.648;2023-06-19T06:40:55;14.70;;;8.07;;
71108;SDS011;59614;51.012;-1.648;2023-06-19T06:43:20;15.32;;;8.80;;
71108;SDS011;59614;51.012;-1.648;2023-06-19T06:45:46;15.75;;;7.50;;
71108;SDS011;59614;51.012;-1.648;2023-06-19T06:48:11;13.27;;;7.20;;
71108;SDS011;59614;51.012;-1.648;2023-06-19T06:50:36;13.60;;;7.00;;
71108;SDS011;59614;51.012;-1.648;2023-06-19T06:53:02;12.75;;;7.53;;
71108;SDS011;59614;51.012;-1.648;2023-06-19T06:55:27;12.27;;;6.70;;
71108;SDS011;59614;51.012;-1.648;2023-06-19T06:57:53;13.35;;;7.68;;
71108;SDS011;59614;51.012;-1.648;2023-06-19T07:00:19;16.35;;;7.10;;
71108;SDS011;59614;51.012;-1.648;2023-06-19T07:02:44;14.15;;;7.05;;
71108;SDS011;59614;51.012;-1.648;2023-06-19T07:05:12;12.65;;;6.25;;
71108;SDS011;59614;51.012;-1.648;2023-06-19T07:07:38;12.45;;;6.50;;
71108;SDS011;59614;51.012;-1.648;2023-06-19T07:10:03;9.15;;;5.95;;
71108;SDS011;59614;51.012;-1.648;2023-06-19T07:12:30;12.98;;;6.10;;
71108;SDS011;59614;51.012;-1.648;2023-06-19T07:14:55;12.73;;;5.72;;
71108;SDS011;59614;51.012;-1.648;2023-06-19T07:17:20;10.52;;;5.80;;
71108;SDS011;59614;51.012;-1.648;2023-06-19T07:19:46;10.13;;;5.70;;
71108;SDS011;59614;51.012;-1.648;2023-06-19T07:22:11;11.30;;;6.13;;
71108;SDS011;59614;51.012;-1.648;2023-06-19T07:24:37;13.20;;;6.07;;
71108;SDS011;59614;51.012;-1.648;2023-06-19T07:27:02;12.70;;;6.05;;
71108;SDS011;59614;51.012;-1.648;2023-06-19T07:29:28;14.63;;;6.45;;
71108;SDS011;59614;51.012;-1.648;2023-06-19T07:31:54;10.90;;;5.97;;
71108;SDS011;59614;51.012;-1.648;2023-06-19T07:34:20;8.95;;;5.13;;
71108;SDS011;59614;51.012;-1.648;2023-06-19T07:36:46;15.75;;;5.88;;
71108;SDS011;59614;51.012;-1.648;2023-06-19T07:39:12;11.65;;;5.32;;
71108;SDS011;59614;51.012;-1.648;2023-06-19T07:41:37;14.63;;;5.93;;
71108;SDS011;59614;51.012;-1.648;2023-06-19T07:44:03;10.15;;;5.80;;
71108;SDS011;59614;51.012;-1.648;2023-06-19T07:46:28;11.93;;;5.30;;
71108;SDS011;59614;51.012;-1.648;2023-06-19T07:48:54;14.52;;;5.43;;
71108;SDS011;59614;51.012;-1.648;2023-06-19T07:51:20;13.77;;;4.97;;
71108;SDS011;59614;51.012;-1.648;2023-06-19T07:53:45;9.80;;;5.07;;
71108;SDS011;59614;51.012;-1.648;2023-06-19T07:56:10;7.22;;;4.70;;
71108;SDS011;59614;51.012;-1.648;2023-06-19T07:58:36;10.23;;;5.15;;
71108;SDS011;59614;51.012;-1.648;2023-06-19T08:01:01;7.20;;;4.50;;
71108;SDS011;59614;51.012;-1.648;2023-06-19T08:03:27;10.45;;;4.93;;
71108;SDS011;59614;51.012;-1.648;2023-06-19T08:05:52;10.00;;;4.72;;
71108;SDS011;59614;51.012;-1.648;2023-06-19T08:08:18;9.50;;;4.80;;
71108;SDS011;59614;51.012;-1.648;2023-06-19T08:10:43;12.07;;;5.53;;
71108;SDS011;59614;51.012;-1.648;2023-06-19T08:13:09;12.07;;;4.78;;
71108;SDS011;59614;51.012;-1.648;2023-06-19T08:15:36;11.18;;;4.60;;
71108;SDS011;59614;51.012;-1.648;2023-06-19T08:18:01;10.52;;;4.75;;
71108;SDS011;59614;51.012;-1.648;2023-06-19T08:20:27;10.90;;;4.97;;
71108;SDS011;59614;51.012;-1.648;2023-06-19T08:22:53;8.60;;;4.70;;
71108;SDS011;59614;51.012;-1.648;2023-06-19T08:25:18;13.27;;;4.95;;
71108;SDS011;59614;51.012;-1.648;2023-06-19T08:27:44;8.88;;;4.25;;
71108;SDS011;59614;51.012;-1.648;2023-06-19T08:30:10;12.50;;;4.85;;
71108;SDS011;59614;51.012;-1.648;2023-06-19T08:32:36;11.57;;;5.25;;
71108;SDS011;59614;51.012;-1.648;2023-06-19T08:35:02;9.20;;;5.50;;
71108;SDS011;59614;51.012;-1.648;2023-06-19T08:37:28;10.05;;;5.10;;
71108;SDS011;59614;51.012;-1.648;2023-06-19T08:39:53;10.82;;;5.45;;
71108;SDS011;59614;51.012;-1.648;2023-06-19T08:42:21;11.18;;;5.18;;
71108;SDS011;59614;51.012;-1.648;2023-06-19T08:44:48;9.67;;;5.37;;
71108;SDS011;59614;51.012;-1.648;2023-06-19T08:47:14;6.68;;;4.78;;
71108;SDS011;59614;51.012;-1.648;2023-06-19T08:49:39;7.13;;;4.75;;
71108;SDS011;59614;51.012;-1.648;2023-06-19T08:52:05;9.48;;;5.15;;
71108;SDS011;59614;51.012;-1.648;2023-06-19T08:54:31;11.55;;;5.00;;
71108;SDS011;59614;51.012;-1.648;2023-06-19T08:57:00;9.60;;;4.90;;
71108;SDS011;59614;51.012;-1.648;2023-06-19T08:59:26;9.13;;;4.72;;
71108;SDS011;59614;51.012;-1.648;2023-06-19T09:01:53;8.82;;;4.13;;
71108;SDS011;59614;51.012;-1.648;2023-06-19T09:04:20;8.65;;;4.70;;
71108;SDS011;59614;51.012;-1.648;2023-06-19T09:09:16;11.93;;;5.63;;
71108;SDS011;59614;51.012;-1.648;2023-06-19T09:11:57;9.77;;;4.75;;
71108;SDS011;59614;51.012;-1.648;2023-06-19T09:14:35;10.15;;;4.45;;
71108;SDS011;59614;51.012;-1.648;2023-06-19T09:17:03;9.20;;;4.60;;
71108;SDS011;59614;51.012;-1.648;2023-06-19T09:19:29;7.70;;;4.63;;
71108;SDS011;59614;51.012;-1.648;2023-06-19T09:24:37;11.65;;;4.53;;
71108;SDS011;59614;51.012;-1.648;2023-06-19T09:27:11;7.90;;;4.30;;
71108;SDS011;59614;51.012;-1.648;2023-06-19T09:29:42;8.43;;;4.40;;
71108;SDS011;59614;51.012;-1.648;2023-06-19T09:34:47;8.18;;;4.20;;
71108;SDS011;59614;51.012;-1.648;2023-06-19T09:37:14;6.90;;;4.18;;
71108;SDS011;59614;51.012;-1.648;2023-06-19T09:39:40;7.60;;;4.22;;
71108;SDS011;59614;51.012;-1.648;2023-06-19T09:42:09;10.32;;;4.70;;
71108;SDS011;59614;51.012;-1.648;2023-06-19T09:44:41;8.93;;;4.00;;
71108;SDS011;59614;51.012;-1.648;2023-06-19T09:50:02;8.18;;;3.90;;
71108;SDS011;59614;51.012;-1.648;2023-06-19T09:52:29;8.23;;;3.13;;
71108;SDS011;59614;51.012;-1.648;2023-06-19T09:54:55;7.57;;;3.60;;
71108;SDS011;59614;51.012;-1.648;2023-06-19T09:57:21;8.45;;;3.95;;
71108;SDS011;59614;51.012;-1.648;2023-06-19T09:59:48;9.65;;;4.13;;
71108;SDS011;59614;51.012;-1.648;2023-06-19T10:02:18;11.15;;;3.55;;
71108;SDS011;59614;51.012;-1.648;2023-06-19T10:04:46;9.35;;;3.67;;
71108;SDS011;59614;51.012;-1.648;2023-06-19T10:07:25;11.25;;;2.90;;
71108;SDS011;59614;51.012;-1.648;2023-06-19T10:10:04;8.65;;;2.85;;
71108;SDS011;59614;51.012;-1.648;2023-06-19T10:15:12;9.68;;;3.90;;
71108;SDS011;59614;51.012;-1.648;2023-06-19T10:18:03;8.93;;;3.42;;
71108;SDS011;59614;51.012;-1.648;2023-06-19T10:20:34;11.10;;;3.23;;
71108;SDS011;59614;51.012;-1.648;2023-06-19T10:25:35;7.80;;;3.28;;
71108;SDS011;59614;51.012;-1.648;2023-06-19T10:28:15;6.45;;;3.30;;
71108;SDS011;59614;51.012;-1.648;2023-06-19T10:30:58;10.93;;;3.53;;
71108;SDS011;59614;51.012;-1.648;2023-06-19T10:35:51;7.60;;;3.30;;
71108;SDS011;59614;51.012;-1.648;2023-06-19T10:38:17;10.02;;;3.60;;
71108;SDS011;59614;51.012;-1.648;2023-06-19T10:40:42;7.45;;;3.40;;
71108;SDS011;59614;51.012;-1.648;2023-06-19T10:43:09;11.40;;;3.47;;
71108;SDS011;59614;51.012;-1.648;2023-06-19T10:45:35;14.93;;;3.88;;
71108;SDS011;59614;51.012;-1.648;2023-06-19T10:48:01;6.85;;;3.47;;
71108;SDS011;59614;51.012;-1.648;2023-06-19T10:50:28;7.85;;;3.30;;
71108;SDS011;59614;51.012;-1.648;2023-06-19T10:52:54;9.85;;;3.55;;
71108;SDS011;59614;51.012;-1.648;2023-06-19T10:55:20;7.93;;;3.50;;
71108;SDS011;59614;51.012;-1.648;2023-06-19T10:57:47;8.02;;;3.50;;
71108;SDS011;59614;51.012;-1.648;2023-06-19T11:02:49;9.40;;;3.50;;
71108;SDS011;59614;51.012;-1.648;2023-06-19T11:05:14;9.65;;;3.58;;
71108;SDS011;59614;51.012;-1.648;2023-06-19T11:07:40;9.30;;;3.85;;
71108;SDS011;59614;51.012;-1.648;2023-06-19T11:10:05;15.05;;;3.97;;
71108;SDS011;59614;51.012;-1.648;2023-06-19T11:12:32;11.63;;;3.70;;
71108;SDS011;59614;51.012;-1.648;2023-06-19T11:15:04;12.63;;;4.07;;
71108;SDS011;59614;51.012;-1.648;2023-06-19T11:17:30;6.68;;;3.17;;
71108;SDS011;59614;51.012;-1.648;2023-06-19T11:19:56;6.50;;;3.10;;
71108;SDS011;59614;51.012;-1.648;2023-06-19T11:25:01;7.60;;;3.20;;
71108;SDS011;59614;51.012;-1.648;2023-06-19T11:27:30;8.38;;;3.47;;
71108;SDS011;59614;51.012;-1.648;2023-06-19T11:29:56;8.35;;;3.60;;
71108;SDS011;59614;51.012;-1.648;2023-06-19T11:32:38;7.78;;;3.70;;
71108;SDS011;59614;51.012;-1.648;2023-06-19T11:35:07;9.50;;;3.60;;
71108;SDS011;59614;51.012;-1.648;2023-06-19T11:37:34;10.98;;;3.55;;
71108;SDS011;59614;51.012;-1.648;2023-06-19T11:40:00;7.10;;;3.03;;
71108;SDS011;59614;51.012;-1.648;2023-06-19T11:42:28;7.35;;;3.08;;
71108;SDS011;59614;51.012;-1.648;2023-06-19T11:44:54;7.43;;;2.80;;
71108;SDS011;59614;51.012;-1.648;2023-06-19T11:47:20;8.05;;;3.38;;
71108;SDS011;59614;51.012;-1.648;2023-06-19T11:49:47;6.80;;;2.80;;
71108;SDS011;59614;51.012;-1.648;2023-06-19T11:52:13;9.93;;;3.22;;
71108;SDS011;59614;51.012;-1.648;2023-06-19T11:54:38;8.20;;;3.53;;
71108;SDS011;59614;51.012;-1.648;2023-06-19T11:57:04;10.45;;;3.60;;
71108;SDS011;59614;51.012;-1.648;2023-06-19T11:59:30;6.60;;;2.97;;
71108;SDS011;59614;51.012;-1.648;2023-06-19T12:01:55;6.47;;;3.00;;
71108;SDS011;59614;51.012;-1.648;2023-06-19T12:04:23;7.15;;;2.90;;
71108;SDS011;59614;51.012;-1.648;2023-06-19T12:06:48;7.18;;;3.15;;
71108;SDS011;59614;51.012;-1.648;2023-06-19T12:09:14;6.78;;;3.05;;
71108;SDS011;59614;51.012;-1.648;2023-06-19T12:11:39;9.23;;;3.20;;
71108;SDS011;59614;51.012;-1.648;2023-06-19T12:14:05;7.80;;;2.90;;
71108;SDS011;59614;51.012;-1.648;2023-06-19T12:16:30;12.43;;;3.40;;
71108;SDS011;59614;51.012;-1.648;2023-06-19T12:18:56;6.97;;;3.10;;
71108;SDS011;59614;51.012;-1.648;2023-06-19T12:21:21;7.55;;;3.00;;
71108;SDS011;59614;51.012;-1.648;2023-06-19T12:23:47;8.65;;;3.25;;
71108;SDS011;59614;51.012;-1.648;2023-06-19T12:26:13;9.45;;;3.17;;
71108;SDS011;59614;51.012;-1.648;2023-06-19T12:28:38;8.52;;;3.00;;
71108;SDS011;59614;51.012;-1.648;2023-06-19T12:31:03;7.80;;;3.30;;
71108;SDS011;59614;51.012;-1.648;2023-06-19T12:33:29;8.27;;;3.10;;
71108;SDS011;59614;51.012;-1.648;2023-06-19T12:35:58;8.68;;;3.33;;
71108;SDS011;59614;51.012;-1.648;2023-06-19T12:38:23;11.75;;;3.53;;
71108;SDS011;59614;51.012;-1.648;2023-06-19T12:40:49;6.32;;;3.20;;
71108;SDS011;59614;51.012;-1.648;2023-06-19T12:43:14;7.55;;;3.20;;
71108;SDS011;59614;51.012;-1.648;2023-06-19T12:45:40;6.20;;;3.08;;
71108;SDS011;59614;51.012;-1.648;2023-06-19T12:48:06;12.88;;;3.35;;
71108;SDS011;59614;51.012;-1.648;2023-06-19T12:50:32;7.85;;;3.22;;
71108;SDS011;59614;51.012;-1.648;2023-06-19T12:52:57;6.85;;;3.20;;
71108;SDS011;59614;51.012;-1.648;2023-06-19T12:55:23;9.30;;;3.00;;
71108;SDS011;59614;51.012;-1.648;2023-06-19T12:57:48;7.28;;;3.28;;
71108;SDS011;59614;51.012;-1.648;2023-06-19T13:00:14;6.75;;;3.00;;
71108;SDS011;59614;51.012;-1.648;2023-06-19T13:02:40;8.20;;;3.33;;
71108;SDS011;59614;51.012;-1.648;2023-06-19T13:05:08;11.65;;;3.28;;
71108;SDS011;59614;51.012;-1.648;2023-06-19T13:07:34;8.80;;;3.35;;
71108;SDS011;59614;51.012;-1.648;2023-06-19T13:09:59;11.13;;;3.45;;
71108;SDS011;59614;51.012;-1.648;2023-06-19T13:12:24;9.20;;;3.30;;
71108;SDS011;59614;51.012;-1.648;2023-06-19T13:14:50;6.38;;;3.22;;
71108;SDS011;59614;51.012;-1.648;2023-06-19T13:17:15;12.45;;;3.42;;
71108;SDS011;59614;51.012;-1.648;2023-06-19T13:19:41;8.63;;;3.40;;
71108;SDS011;59614;51.012;-1.648;2023-06-19T13:22:06;11.32;;;3.50;;
71108;SDS011;59614;51.012;-1.648;2023-06-19T13:24:32;9.15;;;3.53;;
71108;SDS011;59614;51.012;-1.648;2023-06-19T13:26:57;16.55;;;3.65;;
71108;SDS011;59614;51.012;-1.648;2023-06-19T13:29:23;7.50;;;3.22;;
71108;SDS011;59614;51.012;-1.648;2023-06-19T13:31:49;7.78;;;3.30;;
71108;SDS011;59614;51.012;-1.648;2023-06-19T13:34:14;9.10;;;3.45;;
71108;SDS011;59614;51.012;-1.648;2023-06-19T13:36:39;8.63;;;3.20;;
71108;SDS011;59614;51.012;-1.648;2023-06-19T13:39:05;9.20;;;3.40;;
71108;SDS011;59614;51.012;-1.648;2023-06-19T13:41:31;9.80;;;3.40;;
71108;SDS011;59614;51.012;-1.648;2023-06-19T13:43:58;9.50;;;3.67;;
71108;SDS011;59614;51.012;-1.648;2023-06-19T13:46:24;8.77;;;3.73;;
71108;SDS011;59614;51.012;-1.648;2023-06-19T13:48:49;7.70;;;3.00;;
71108;SDS011;59614;51.012;-1.648;2023-06-19T13:51:17;7.18;;;3.38;;
71108;SDS011;59614;51.012;-1.648;2023-06-19T13:53:43;6.85;;;3.25;;
71108;SDS011;59614;51.012;-1.648;2023-06-19T13:56:09;6.13;;;2.80;;
71108;SDS011;59614;51.012;-1.648;2023-06-19T13:58:35;5.97;;;2.88;;
71108;SDS011;59614;51.012;-1.648;2023-06-19T14:01:00;7.70;;;3.10;;
71108;SDS011;59614;51.012;-1.648;2023-06-19T14:03:25;6.88;;;3.40;;
71108;SDS011;59614;51.012;-1.648;2023-06-19T14:05:51;7.47;;;3.25;;
71108;SDS011;59614;51.012;-1.648;2023-06-19T14:08:16;8.88;;;3.00;;
71108;SDS011;59614;51.012;-1.648;2023-06-19T14:10:42;8.65;;;3.17;;
71108;SDS011;59614;51.012;-1.648;2023-06-19T14:13:08;7.30;;;3.15;;
71108;SDS011;59614;51.012;-1.648;2023-06-19T14:15:34;7.70;;;3.20;;
71108;SDS011;59614;51.012;-1.648;2023-06-19T14:17:59;13.52;;;3.33;;
71108;SDS011;59614;51.012;-1.648;2023-06-19T14:20:25;7.18;;;3.30;;
71108;SDS011;59614;51.012;-1.648;2023-06-19T14:22:50;6.95;;;3.15;;
71108;SDS011;59614;51.012;-1.648;2023-06-19T14:25:15;8.00;;;3.20;;
71108;SDS011;59614;51.012;-1.648;2023-06-19T14:27:41;9.68;;;3.35;;
71108;SDS011;59614;51.012;-1.648;2023-06-19T14:30:07;9.38;;;3.42;;
71108;SDS011;59614;51.012;-1.648;2023-06-19T14:32:33;9.52;;;3.40;;
71108;SDS011;59614;51.012;-1.648;2023-06-19T14:35:01;9.13;;;3.40;;
71108;SDS011;59614;51.012;-1.648;2023-06-19T14:37:26;9.07;;;3.38;;
71108;SDS011;59614;51.012;-1.648;2023-06-19T14:39:52;8.07;;;3.45;;
71108;SDS011;59614;51.012;-1.648;2023-06-19T14:42:17;8.10;;;3.45;;